sensor_id;sensor_type;location;lat;lon;timestamp;pressure;altitude;pressure_sealevel;temperature;humidity
71917;BME280;59793;46.506;6.674;2023-01-15T00:00:45;96862.88;;;8.70;67.90
71917;BME280;59793;46.506;6.674;2023-01-15T00:03:11;96817.53;;;8.33;68.80
71917;BME280;59793;46.506;6.674;2023-01-15T00:05:36;96862.25;;;8.61;69.86
71917;BME280;59793;46.506;6.674;2023-01-15T00:08:02;96815.34;;;8.23;70.40
71917;BME280;59793;46.506;6.674;2023-01-15T00:10:27;96858.44;;;8.46;71.63
71917;BME280;59793;46.506;6.674;2023-01-15T00:12:53;96824.88;;;8.15;72.75
71917;BME280;59793;46.506;6.674;2023-01-15T00:15:18;96856.03;;;8.29;73.47
71917;BME280;59793;46.506;6.674;2023-01-15T00:17:44;96855.28;;;8.28;74.31
71917;BME280;59793;46.506;6.674;2023-01-15T00:20:10;96855.81;;;8.22;74.95
71917;BME280;59793;46.506;6.674;2023-01-15T00:22:35;96837.56;;;8.01;76.27
71917;BME280;59793;46.506;6.674;2023-01-15T00:25:01;96832.00;;;8.02;76.90
71917;BME280;59793;46.506;6.674;2023-01-15T00:27:45;96813.88;;;7.85;77.63
71917;BME280;59793;46.506;6.674;2023-01-15T00:30:12;96843.47;;;7.98;78.22
71917;BME280;59793;46.506;6.674;2023-01-15T00:32:39;96826.75;;;7.90;78.61
71917;BME280;59793;46.506;6.674;2023-01-15T00:35:05;96790.78;;;7.66;78.50
71917;BME280;59793;46.506;6.674;2023-01-15T00:37:31;96794.41;;;7.74;78.99
71917;BME280;59793;46.506;6.674;2023-01-15T00:39:56;96799.88;;;7.81;79.63
71917;BME280;59793;46.506;6.674;2023-01-15T00:42:21;96740.22;;;7.41;79.61
71917;BME280;59793;46.506;6.674;2023-01-15T00:44:47;96802.06;;;7.79;80.67
71917;BME280;59793;46.506;6.674;2023-01-15T00:47:12;96774.00;;;7.67;80.37
71917;BME280;59793;46.506;6.674;2023-01-15T00:49:41;96803.03;;;7.86;80.86
71917;BME280;59793;46.506;6.674;2023-01-15T00:52:07;96797.69;;;7.83;80.40
71917;BME280;59793;46.506;6.674;2023-01-15T00:54:32;96814.19;;;7.96;81.15
71917;BME280;59793;46.506;6.674;2023-01-15T00:56:58;96799.88;;;7.81;81.15
71917;BME280;59793;46.506;6.674;2023-01-15T00:59:24;96812.88;;;7.89;80.96
71917;BME280;59793;46.506;6.674;2023-01-15T01:01:49;96768.06;;;7.70;81.08
71917;BME280;59793;46.506;6.674;2023-01-15T01:04:15;96765.03;;;7.68;81.13
71917;BME280;59793;46.506;6.674;2023-01-15T01:06:41;96759.13;;;7.71;81.16
71917;BME280;59793;46.506;6.674;2023-01-15T01:09:06;96785.03;;;7.85;81.38
71917;BME280;59793;46.506;6.674;2023-01-15T01:11:32;96753.34;;;7.65;81.01
71917;BME280;59793;46.506;6.674;2023-01-15T01:13:59;96795.59;;;8.01;81.20
71917;BME280;59793;46.506;6.674;2023-01-15T01:18:50;96777.44;;;8.08;81.43
71917;BME280;59793;46.506;6.674;2023-01-15T01:21:16;96750.47;;;7.95;80.61
71917;BME280;59793;46.506;6.674;2023-01-15T01:23:42;96795.91;;;8.24;80.29
71917;BME280;59793;46.506;6.674;2023-01-15T01:26:07;96768.81;;;8.07;80.85
71917;BME280;59793;46.506;6.674;2023-01-15T01:28:34;96757.66;;;8.10;80.83
71917;BME280;59793;46.506;6.674;2023-01-15T01:30:59;96774.13;;;8.23;81.48
71917;BME280;59793;46.506;6.674;2023-01-15T01:33:24;96766.59;;;8.34;81.09
71917;BME280;59793;46.506;6.674;2023-01-15T01:35:50;96706.97;;;7.94;80.95
71917;BME280;59793;46.506;6.674;2023-01-15T01:38:15;96754.59;;;8.21;81.65
71917;BME280;59793;46.506;6.674;2023-01-15T01:40:41;96785.28;;;8.45;82.12
71917;BME280;59793;46.506;6.674;2023-01-15T01:43:20;96768.41;;;8.33;82.35
71917;BME280;59793;46.506;6.674;2023-01-15T01:45:46;96781.66;;;8.49;82.59
71917;BME280;59793;46.506;6.674;2023-01-15T01:48:12;96765.03;;;8.45;82.53
71917;BME280;59793;46.506;6.674;2023-01-15T01:50:40;96772.97;;;8.61;82.37
71917;BME280;59793;46.506;6.674;2023-01-15T01:53:11;96743.56;;;8.55;82.16
71917;BME280;59793;46.506;6.674;2023-01-15T01:55:38;96752.91;;;8.69;81.60
71917;BME280;59793;46.506;6.674;2023-01-15T01:58:05;96749.03;;;8.63;82.24
71917;BME280;59793;46.506;6.674;2023-01-15T02:00:32;96742.09;;;8.70;81.72
71917;BME280;59793;46.506;6.674;2023-01-15T02:02:59;96689.50;;;8.26;81.74
71917;BME280;59793;46.506;6.674;2023-01-15T02:05:51;96768.38;;;8.86;81.51
71917;BME280;59793;46.506;6.674;2023-01-15T02:08:18;96748.94;;;8.75;81.40
71917;BME280;59793;46.506;6.674;2023-01-15T02:10:45;96757.28;;;8.93;81.55
71917;BME280;59793;46.506;6.674;2023-01-15T02:13:18;96759.06;;;8.89;81.46
71917;BME280;59793;46.506;6.674;2023-01-15T02:15:55;96751.75;;;8.82;82.55
71917;BME280;59793;46.506;6.674;2023-01-15T02:21:41;96751.56;;;8.75;82.45
71917;BME280;59793;46.506;6.674;2023-01-15T02:24:22;96726.00;;;8.44;83.10
71917;BME280;59793;46.506;6.674;2023-01-15T02:27:16;96761.03;;;8.64;83.74
71917;BME280;59793;46.506;6.674;2023-01-15T02:29:50;96766.38;;;8.67;83.80
71917;BME280;59793;46.506;6.674;2023-01-15T02:32:36;96754.84;;;8.56;84.18
71917;BME280;59793;46.506;6.674;2023-01-15T02:35:18;96763.22;;;8.61;84.40
71917;BME280;59793;46.506;6.674;2023-01-15T02:37:51;96717.78;;;8.45;84.45
71917;BME280;59793;46.506;6.674;2023-01-15T02:40:20;96766.47;;;8.71;84.83
71917;BME280;59793;46.506;6.674;2023-01-15T02:42:47;96761.72;;;8.60;85.46
71917;BME280;59793;46.506;6.674;2023-01-15T02:45:16;96764.53;;;8.68;85.79
71917;BME280;59793;46.506;6.674;2023-01-15T02:47:44;96732.09;;;8.48;86.03
71917;BME280;59793;46.506;6.674;2023-01-15T02:50:14;96678.91;;;8.23;85.83
71917;BME280;59793;46.506;6.674;2023-01-15T02:52:44;96764.56;;;8.83;85.53
71917;BME280;59793;46.506;6.674;2023-01-15T02:55:17;96743.47;;;8.80;85.94
71917;BME280;59793;46.506;6.674;2023-01-15T02:57:45;96703.84;;;8.57;86.29
71917;BME280;59793;46.506;6.674;2023-01-15T03:00:13;96745.22;;;8.76;86.74
71917;BME280;59793;46.506;6.674;2023-01-15T03:02:44;96739.56;;;8.74;87.49
71917;BME280;59793;46.506;6.674;2023-01-15T03:05:37;96745.31;;;8.79;87.43
71917;BME280;59793;46.506;6.674;2023-01-15T03:08:05;96725.00;;;8.76;87.74
71917;BME280;59793;46.506;6.674;2023-01-15T03:10:41;96738.88;;;8.77;88.13
71917;BME280;59793;46.506;6.674;2023-01-15T03:13:13;96720.06;;;8.75;88.37
71917;BME280;59793;46.506;6.674;2023-01-15T03:16:08;96727.00;;;8.67;88.36
71917;BME280;59793;46.506;6.674;2023-01-15T03:21:53;96709.63;;;8.63;88.73
71917;BME280;59793;46.506;6.674;2023-01-15T03:24:31;96725.31;;;8.75;88.36
71917;BME280;59793;46.506;6.674;2023-01-15T03:26:57;96731.91;;;8.69;88.86
71917;BME280;59793;46.506;6.674;2023-01-15T03:29:24;96705.13;;;8.63;88.74
71917;BME280;59793;46.506;6.674;2023-01-15T03:31:51;96720.97;;;8.67;88.86
71917;BME280;59793;46.506;6.674;2023-01-15T03:34:18;96725.69;;;8.61;89.39
71917;BME280;59793;46.506;6.674;2023-01-15T03:36:43;96736.97;;;8.61;89.64
71917;BME280;59793;46.506;6.674;2023-01-15T03:39:09;96679.97;;;8.34;89.84
71917;BME280;59793;46.506;6.674;2023-01-15T03:41:51;96722.03;;;8.50;90.22
71917;BME280;59793;46.506;6.674;2023-01-15T03:44:40;96715.78;;;8.54;90.06
71917;BME280;59793;46.506;6.674;2023-01-15T03:47:32;96720.03;;;8.59;90.33
71917;BME280;59793;46.506;6.674;2023-01-15T03:57:40;96710.00;;;8.49;90.83
71917;BME280;59793;46.506;6.674;2023-01-15T04:00:33;96711.00;;;8.44;90.86
71917;BME280;59793;46.506;6.674;2023-01-15T04:03:03;96698.13;;;8.27;90.87
71917;BME280;59793;46.506;6.674;2023-01-15T04:05:31;96691.97;;;8.47;90.91
71917;BME280;59793;46.506;6.674;2023-01-15T04:08:00;96695.84;;;8.37;91.01
71917;BME280;59793;46.506;6.674;2023-01-15T04:10:25;96693.50;;;8.48;90.99
71917;BME280;59793;46.506;6.674;2023-01-15T04:12:51;96667.25;;;8.36;90.92
71917;BME280;59793;46.506;6.674;2023-01-15T04:15:16;96638.56;;;8.27;90.86
71917;BME280;59793;46.506;6.674;2023-01-15T04:17:43;96660.72;;;8.42;91.06
71917;BME280;59793;46.506;6.674;2023-01-15T04:20:09;96661.41;;;8.55;91.10
71917;BME280;59793;46.506;6.674;2023-01-15T04:22:34;96635.41;;;8.50;90.92
71917;BME280;59793;46.506;6.674;2023-01-15T04:25:03;96631.00;;;8.54;90.42
71917;BME280;59793;46.506;6.674;2023-01-15T04:27:28;96641.34;;;8.63;90.72
71917;BME280;59793;46.506;6.674;2023-01-15T04:29:54;96620.00;;;8.36;91.06
71917;BME280;59793;46.506;6.674;2023-01-15T04:32:19;96632.88;;;8.53;91.27
71917;BME280;59793;46.506;6.674;2023-01-15T04:34:44;96647.69;;;8.61;91.14
71917;BME280;59793;46.506;6.674;2023-01-15T04:37:10;96648.09;;;8.48;91.46
71917;BME280;59793;46.506;6.674;2023-01-15T04:39:35;96620.69;;;8.33;92.09
71917;BME280;59793;46.506;6.674;2023-01-15T04:42:01;96625.63;;;8.34;92.29
71917;BME280;59793;46.506;6.674;2023-01-15T04:44:44;96615.06;;;8.47;91.99
71917;BME280;59793;46.506;6.674;2023-01-15T04:47:10;96629.38;;;8.49;91.84
71917;BME280;59793;46.506;6.674;2023-01-15T04:49:35;96605.38;;;8.35;91.99
71917;BME280;59793;46.506;6.674;2023-01-15T04:52:01;96605.25;;;8.44;91.59
71917;BME280;59793;46.506;6.674;2023-01-15T04:54:26;96600.34;;;8.42;91.01
71917;BME280;59793;46.506;6.674;2023-01-15T04:56:53;96596.88;;;8.38;91.75
71917;BME280;59793;46.506;6.674;2023-01-15T04:59:21;96595.84;;;8.58;91.16
71917;BME280;59793;46.506;6.674;2023-01-15T05:01:47;96573.66;;;8.40;91.52
71917;BME280;59793;46.506;6.674;2023-01-15T05:04:13;96579.84;;;8.48;91.26
71917;BME280;59793;46.506;6.674;2023-01-15T05:06:38;96572.78;;;8.36;91.38
71917;BME280;59793;46.506;6.674;2023-01-15T05:09:04;96575.38;;;8.48;91.12
71917;BME280;59793;46.506;6.674;2023-01-15T05:11:30;96564.88;;;8.48;90.63
71917;BME280;59793;46.506;6.674;2023-01-15T05:13:56;96601.34;;;8.69;90.36
71917;BME280;59793;46.506;6.674;2023-01-15T05:16:24;96581.88;;;8.70;89.96
71917;BME280;59793;46.506;6.674;2023-01-15T05:18:51;96572.38;;;8.66;89.78
71917;BME280;59793;46.506;6.674;2023-01-15T05:21:20;96568.41;;;8.72;89.61
71917;BME280;59793;46.506;6.674;2023-01-15T05:23:47;96564.41;;;8.62;89.21
71917;BME280;59793;46.506;6.674;2023-01-15T05:26:12;96561.28;;;8.88;89.15
71917;BME280;59793;46.506;6.674;2023-01-15T05:28:38;96524.63;;;8.60;88.93
71917;BME280;59793;46.506;6.674;2023-01-15T05:31:09;96563.84;;;8.84;88.87
71917;BME280;59793;46.506;6.674;2023-01-15T05:33:35;96559.69;;;8.83;88.38
71917;BME280;59793;46.506;6.674;2023-01-15T05:36:06;96557.56;;;8.89;87.91
71917;BME280;59793;46.506;6.674;2023-01-15T05:38:32;96550.34;;;8.86;88.37
71917;BME280;59793;46.506;6.674;2023-01-15T05:40:58;96543.31;;;8.90;88.34
71917;BME280;59793;46.506;6.674;2023-01-15T05:43:24;96520.38;;;8.71;88.14
71917;BME280;59793;46.506;6.674;2023-01-15T05:45:49;96501.31;;;8.58;87.96
71917;BME280;59793;46.506;6.674;2023-01-15T05:48:15;96525.78;;;8.94;87.72
71917;BME280;59793;46.506;6.674;2023-01-15T05:50:40;96533.06;;;8.85;87.93
71917;BME280;59793;46.506;6.674;2023-01-15T05:53:06;96529.09;;;8.91;88.01
71917;BME280;59793;46.506;6.674;2023-01-15T05:55:32;96503.59;;;8.76;87.15
71917;BME280;59793;46.506;6.674;2023-01-15T05:57:57;96501.19;;;8.86;86.73
71917;BME280;59793;46.506;6.674;2023-01-15T06:00:23;96489.53;;;8.84;86.65
71917;BME280;59793;46.506;6.674;2023-01-15T06:02:50;96535.06;;;9.07;86.07
71917;BME280;59793;46.506;6.674;2023-01-15T06:05:16;96535.06;;;9.07;86.09
71917;BME280;59793;46.506;6.674;2023-01-15T06:07:47;96525.22;;;9.04;86.22
71917;BME280;59793;46.506;6.674;2023-01-15T06:10:13;96496.44;;;8.92;86.36
71917;BME280;59793;46.506;6.674;2023-01-15T06:12:38;96506.75;;;9.01;86.88
71917;BME280;59793;46.506;6.674;2023-01-15T06:15:04;96483.44;;;8.80;86.06
71917;BME280;59793;46.506;6.674;2023-01-15T06:17:30;96507.63;;;9.05;86.23
71917;BME280;59793;46.506;6.674;2023-01-15T06:19:55;96511.09;;;8.93;86.47
71917;BME280;59793;46.506;6.674;2023-01-15T06:22:20;96455.34;;;8.65;86.38
71917;BME280;59793;46.506;6.674;2023-01-15T06:24:45;96490.28;;;8.84;86.20
71917;BME280;59793;46.506;6.674;2023-01-15T06:27:11;96519.56;;;9.02;86.25
71917;BME280;59793;46.506;6.674;2023-01-15T06:29:36;96518.88;;;9.05;86.01
71917;BME280;59793;46.506;6.674;2023-01-15T06:32:02;96498.78;;;8.78;85.92
71917;BME280;59793;46.506;6.674;2023-01-15T06:34:27;96538.78;;;9.06;85.24
71917;BME280;59793;46.506;6.674;2023-01-15T06:36:52;96521.50;;;9.05;85.51
71917;BME280;59793;46.506;6.674;2023-01-15T06:39:18;96526.88;;;8.93;84.54
71917;BME280;59793;46.506;6.674;2023-01-15T06:41:43;96497.25;;;8.77;85.12
71917;BME280;59793;46.506;6.674;2023-01-15T06:44:27;96490.22;;;8.81;84.15
71917;BME280;59793;46.506;6.674;2023-01-15T06:47:15;96519.22;;;9.04;84.19
71917;BME280;59793;46.506;6.674;2023-01-15T06:49:59;96513.47;;;8.98;84.27
71917;BME280;59793;46.506;6.674;2023-01-15T06:52:26;96512.81;;;9.01;84.92
71917;BME280;59793;46.506;6.674;2023-01-15T06:54:52;96515.97;;;9.10;84.43
71917;BME280;59793;46.506;6.674;2023-01-15T06:57:18;96501.72;;;9.12;83.79
71917;BME280;59793;46.506;6.674;2023-01-15T06:59:43;96488.69;;;9.15;83.17
71917;BME280;59793;46.506;6.674;2023-01-15T07:02:12;96495.03;;;9.14;83.14
71917;BME280;59793;46.506;6.674;2023-01-15T07:04:37;96486.09;;;8.99;83.01
71917;BME280;59793;46.506;6.674;2023-01-15T07:07:03;96496.47;;;9.12;83.61
71917;BME280;59793;46.506;6.674;2023-01-15T07:09:29;96470.03;;;9.04;82.29
71917;BME280;59793;46.506;6.674;2023-01-15T07:11:54;96457.19;;;8.99;82.46
71917;BME280;59793;46.506;6.674;2023-01-15T07:14:22;96429.41;;;8.98;81.75
71917;BME280;59793;46.506;6.674;2023-01-15T07:16:49;96476.53;;;9.26;82.17
71917;BME280;59793;46.506;6.674;2023-01-15T07:19:15;96475.75;;;9.26;81.19
71917;BME280;59793;46.506;6.674;2023-01-15T07:21:41;96475.03;;;9.29;78.07
71917;BME280;59793;46.506;6.674;2023-01-15T07:24:07;96447.59;;;9.07;77.64
71917;BME280;59793;46.506;6.674;2023-01-15T07:26:33;96452.22;;;9.14;76.79
71917;BME280;59793;46.506;6.674;2023-01-15T07:28:59;96438.94;;;9.06;77.49
71917;BME280;59793;46.506;6.674;2023-01-15T07:31:24;96413.38;;;8.84;76.76
71917;BME280;59793;46.506;6.674;2023-01-15T07:33:49;96437.97;;;9.15;77.37
71917;BME280;59793;46.506;6.674;2023-01-15T07:36:15;96410.88;;;8.91;77.10
71917;BME280;59793;46.506;6.674;2023-01-15T07:38:40;96417.78;;;8.99;77.58
71917;BME280;59793;46.506;6.674;2023-01-15T07:41:06;96418.75;;;9.10;76.72
71917;BME280;59793;46.506;6.674;2023-01-15T07:43:49;96404.72;;;9.03;76.16
71917;BME280;59793;46.506;6.674;2023-01-15T07:46:34;96444.34;;;9.14;76.67
71917;BME280;59793;46.506;6.674;2023-01-15T07:49:17;96449.97;;;9.12;76.60
71917;BME280;59793;46.506;6.674;2023-01-15T07:52:02;96444.78;;;9.16;76.47
71917;BME280;59793;46.506;6.674;2023-01-15T07:54:27;96446.28;;;9.17;76.92
71917;BME280;59793;46.506;6.674;2023-01-15T07:56:53;96437.75;;;9.04;77.94
71917;BME280;59793;46.506;6.674;2023-01-15T07:59:19;96431.59;;;8.96;79.29
71917;BME280;59793;46.506;6.674;2023-01-15T08:01:45;96439.09;;;9.33;76.92
71917;BME280;59793;46.506;6.674;2023-01-15T08:04:10;96432.03;;;9.37;78.22
71917;BME280;59793;46.506;6.674;2023-01-15T08:06:36;96434.34;;;9.19;78.95
71917;BME280;59793;46.506;6.674;2023-01-15T08:09:02;96426.50;;;9.03;79.48
71917;BME280;59793;46.506;6.674;2023-01-15T08:11:28;96400.75;;;8.74;78.75
71917;BME280;59793;46.506;6.674;2023-01-15T08:14:12;96430.28;;;8.86;78.99
71917;BME280;59793;46.506;6.674;2023-01-15T08:17:13;96458.41;;;8.86;78.24
71917;BME280;59793;46.506;6.674;2023-01-15T08:19:38;96477.38;;;8.95;78.54
71917;BME280;59793;46.506;6.674;2023-01-15T08:22:03;96492.38;;;8.95;78.16
71917;BME280;59793;46.506;6.674;2023-01-15T08:24:29;96446.25;;;8.78;78.34
71917;BME280;59793;46.506;6.674;2023-01-15T08:26:54;96441.81;;;8.82;78.81
71917;BME280;59793;46.506;6.674;2023-01-15T08:29:21;96484.16;;;8.96;77.78
71917;BME280;59793;46.506;6.674;2023-01-15T08:31:46;96472.06;;;8.92;78.35
71917;BME280;59793;46.506;6.674;2023-01-15T08:34:12;96490.38;;;8.88;77.38
71917;BME280;59793;46.506;6.674;2023-01-15T08:36:38;96445.94;;;8.64;77.32
71917;BME280;59793;46.506;6.674;2023-01-15T08:39:03;96492.16;;;8.84;76.27
71917;BME280;59793;46.506;6.674;2023-01-15T08:41:29;96489.25;;;8.89;76.12
71917;BME280;59793;46.506;6.674;2023-01-15T08:43:55;96523.16;;;8.94;76.90
71917;BME280;59793;46.506;6.674;2023-01-15T08:46:20;96493.59;;;8.81;77.23
71917;BME280;59793;46.506;6.674;2023-01-15T08:48:45;96534.28;;;9.07;77.98
71917;BME280;59793;46.506;6.674;2023-01-15T08:51:12;96514.38;;;8.71;78.58
71917;BME280;59793;46.506;6.674;2023-01-15T08:53:38;96564.94;;;8.83;80.21
71917;BME280;59793;46.506;6.674;2023-01-15T08:56:06;96543.78;;;8.45;80.83
71917;BME280;59793;46.506;6.674;2023-01-15T08:58:35;96566.72;;;8.64;80.85
71917;BME280;59793;46.506;6.674;2023-01-15T09:01:08;96579.50;;;8.49;79.57
71917;BME280;59793;46.506;6.674;2023-01-15T09:03:35;96583.91;;;8.61;78.68
71917;BME280;59793;46.506;6.674;2023-01-15T09:06:01;96582.50;;;8.35;78.14
71917;BME280;59793;46.506;6.674;2023-01-15T09:08:27;96606.78;;;8.45;78.72
71917;BME280;59793;46.506;6.674;2023-01-15T09:11:02;96644.38;;;8.49;80.26
71917;BME280;59793;46.506;6.674;2023-01-15T09:13:29;96631.66;;;8.23;80.48
71917;BME280;59793;46.506;6.674;2023-01-15T09:16:02;96639.03;;;8.17;80.71
71917;BME280;59793;46.506;6.674;2023-01-15T09:18:29;96688.53;;;8.19;80.77
71917;BME280;59793;46.506;6.674;2023-01-15T09:20:54;96672.78;;;7.90;81.43
71917;BME280;59793;46.506;6.674;2023-01-15T09:23:20;96697.47;;;7.89;80.57
71917;BME280;59793;46.506;6.674;2023-01-15T09:26:00;96724.56;;;7.94;80.96
71917;BME280;59793;46.506;6.674;2023-01-15T09:28:28;96737.25;;;7.79;79.86
71917;BME280;59793;46.506;6.674;2023-01-15T09:30:54;96750.47;;;7.83;78.99
71917;BME280;59793;46.506;6.674;2023-01-15T09:33:19;96730.94;;;7.56;78.54
71917;BME280;59793;46.506;6.674;2023-01-15T09:35:45;96758.78;;;7.73;79.32
71917;BME280;59793;46.506;6.674;2023-01-15T09:38:12;96767.53;;;7.77;80.80
71917;BME280;59793;46.506;6.674;2023-01-15T09:40:52;96764.69;;;7.82;80.39
71917;BME280;59793;46.506;6.674;2023-01-15T09:44:06;96767.75;;;7.84;79.19
71917;BME280;59793;46.506;6.674;2023-01-15T09:49:40;96781.75;;;7.76;79.87
71917;BME280;59793;46.506;6.674;2023-01-15T09:52:24;96807.97;;;7.88;79.70
71917;BME280;59793;46.506;6.674;2023-01-15T09:55:02;96779.13;;;7.63;81.87
71917;BME280;59793;46.506;6.674;2023-01-15T09:57:29;96780.88;;;7.72;82.74
71917;BME280;59793;46.506;6.674;2023-01-15T09:59:56;96757.25;;;7.47;83.63
71917;BME280;59793;46.506;6.674;2023-01-15T10:02:31;96830.25;;;7.82;82.99
71917;BME280;59793;46.506;6.674;2023-01-15T10:05:23;96789.28;;;7.53;83.89
71917;BME280;59793;46.506;6.674;2023-01-15T10:10:24;96819.84;;;7.49;83.53
71917;BME280;59793;46.506;6.674;2023-01-15T10:12:57;96848.59;;;7.57;83.00
71917;BME280;59793;46.506;6.674;2023-01-15T10:15:41;96852.50;;;7.51;82.20
71917;BME280;59793;46.506;6.674;2023-01-15T10:18:18;96841.59;;;7.49;82.95
71917;BME280;59793;46.506;6.674;2023-01-15T10:21:23;96865.84;;;7.58;83.50
71917;BME280;59793;46.506;6.674;2023-01-15T10:24:14;96865.41;;;7.56;83.78
71917;BME280;59793;46.506;6.674;2023-01-15T10:26:55;96872.72;;;7.63;83.90
71917;BME280;59793;46.506;6.674;2023-01-15T10:32:28;96902.31;;;7.51;82.29
71917;BME280;59793;46.506;6.674;2023-01-15T10:37:57;96901.31;;;7.43;82.59
71917;BME280;59793;46.506;6.674;2023-01-15T10:40:42;96915.50;;;7.42;82.48
71917;BME280;59793;46.506;6.674;2023-01-15T10:43:12;96932.63;;;7.40;77.54
71917;BME280;59793;46.506;6.674;2023-01-15T10:45:50;96926.09;;;7.46;80.70
71917;BME280;59793;46.506;6.674;2023-01-15T10:48:36;96919.72;;;7.35;79.46
71917;BME280;59793;46.506;6.674;2023-01-15T10:54:25;96937.09;;;7.39;82.74
71917;BME280;59793;46.506;6.674;2023-01-15T10:57:03;96921.53;;;7.22;81.48
71917;BME280;59793;46.506;6.674;2023-01-15T10:59:56;96953.47;;;7.36;80.27
71917;BME280;59793;46.506;6.674;2023-01-15T11:02:27;96943.84;;;7.28;79.13
71917;BME280;59793;46.506;6.674;2023-01-15T11:04:54;96960.13;;;7.34;77.45
71917;BME280;59793;46.506;6.674;2023-01-15T11:07:25;96958.78;;;7.28;79.52
71917;BME280;59793;46.506;6.674;2023-01-15T11:09:52;96913.56;;;6.98;80.32
71917;BME280;59793;46.506;6.674;2023-01-15T11:12:24;96958.84;;;7.19;80.11
71917;BME280;59793;46.506;6.674;2023-01-15T11:14:52;96931.75;;;6.94;80.17
71917;BME280;59793;46.506;6.674;2023-01-15T11:17:43;96957.84;;;7.11;77.44
71917;BME280;59793;46.506;6.674;2023-01-15T11:20:30;96965.06;;;7.14;78.14
71917;BME280;59793;46.506;6.674;2023-01-15T11:23:04;96942.63;;;7.05;78.72
71917;BME280;59793;46.506;6.674;2023-01-15T11:25:31;96990.16;;;7.36;77.99
71917;BME280;59793;46.506;6.674;2023-01-15T11:27:59;96995.28;;;7.33;78.53
71917;BME280;59793;46.506;6.674;2023-01-15T11:30:29;96998.88;;;7.28;78.16
71917;BME280;59793;46.506;6.674;2023-01-15T11:32:57;97008.06;;;7.34;77.74
71917;BME280;59793;46.506;6.674;2023-01-15T11:35:23;97009.66;;;7.27;79.26
71917;BME280;59793;46.506;6.674;2023-01-15T11:37:49;97004.53;;;7.09;80.15
71917;BME280;59793;46.506;6.674;2023-01-15T11:40:21;97029.78;;;7.14;79.92
71917;BME280;59793;46.506;6.674;2023-01-15T11:42:50;97040.78;;;7.07;80.70
71917;BME280;59793;46.506;6.674;2023-01-15T11:45:51;97055.28;;;6.96;80.38
71917;BME280;59793;46.506;6.674;2023-01-15T11:48:46;97050.25;;;6.91;79.36
71917;BME280;59793;46.506;6.674;2023-01-15T11:51:40;97063.34;;;6.91;78.92
71917;BME280;59793;46.506;6.674;2023-01-15T11:54:09;97050.72;;;6.55;79.78
71917;BME280;59793;46.506;6.674;2023-01-15T11:56:40;97080.44;;;6.50;81.82
71917;BME280;59793;46.506;6.674;2023-01-15T11:59:09;97062.84;;;6.12;81.34
71917;BME280;59793;46.506;6.674;2023-01-15T12:01:37;97085.75;;;6.15;81.27
71917;BME280;59793;46.506;6.674;2023-01-15T12:04:38;97074.03;;;6.21;83.09
71917;BME280;59793;46.506;6.674;2023-01-15T12:07:12;97087.59;;;6.23;80.97
71917;BME280;59793;46.506;6.674;2023-01-15T12:17:58;97078.94;;;6.32;81.91
71917;BME280;59793;46.506;6.674;2023-01-15T12:23:30;97098.38;;;6.22;82.54
71917;BME280;59793;46.506;6.674;2023-01-15T12:26:24;97098.06;;;6.23;81.50
71917;BME280;59793;46.506;6.674;2023-01-15T12:31:30;97090.38;;;6.18;80.29
71917;BME280;59793;46.506;6.674;2023-01-15T12:34:02;97100.50;;;6.29;79.29
71917;BME280;59793;46.506;6.674;2023-01-15T12:36:40;97111.31;;;6.18;78.25
71917;BME280;59793;46.506;6.674;2023-01-15T12:41:58;97100.84;;;6.01;80.80
71917;BME280;59793;46.506;6.674;2023-01-15T12:44:51;97114.06;;;6.13;81.22
71917;BME280;59793;46.506;6.674;2023-01-15T12:47:33;97111.28;;;5.84;81.20
71917;BME280;59793;46.506;6.674;2023-01-15T12:52:49;97134.31;;;5.64;79.04
71917;BME280;59793;46.506;6.674;2023-01-15T12:55:22;97106.94;;;5.53;79.89
71917;BME280;59793;46.506;6.674;2023-01-15T12:57:52;97110.03;;;5.55;80.82
71917;BME280;59793;46.506;6.674;2023-01-15T13:00:23;97087.72;;;5.40;79.32
71917;BME280;59793;46.506;6.674;2023-01-15T13:05:26;97102.81;;;5.78;79.02
71917;BME280;59793;46.506;6.674;2023-01-15T13:08:13;97081.59;;;5.62;78.85
71917;BME280;59793;46.506;6.674;2023-01-15T13:10:44;97090.53;;;5.70;79.18
71917;BME280;59793;46.506;6.674;2023-01-15T13:15:45;97106.66;;;5.81;79.48
71917;BME280;59793;46.506;6.674;2023-01-15T13:20:50;97072.19;;;5.44;77.47
71917;BME280;59793;46.506;6.674;2023-01-15T13:36:58;97088.53;;;5.93;77.92
71917;BME280;59793;46.506;6.674;2023-01-15T13:39:36;97094.03;;;5.83;78.24
71917;BME280;59793;46.506;6.674;2023-01-15T13:42:03;97061.16;;;5.64;77.51
71917;BME280;59793;46.506;6.674;2023-01-15T13:44:50;97076.69;;;5.69;76.97
71917;BME280;59793;46.506;6.674;2023-01-15T13:47:21;97078.84;;;5.76;76.79
71917;BME280;59793;46.506;6.674;2023-01-15T13:49:54;97051.16;;;5.66;76.31
71917;BME280;59793;46.506;6.674;2023-01-15T13:54:58;97087.47;;;5.94;77.32
71917;BME280;59793;46.506;6.674;2023-01-15T13:57:32;97061.78;;;5.96;76.94
71917;BME280;59793;46.506;6.674;2023-01-15T13:59:58;97054.97;;;5.86;75.65
71917;BME280;59793;46.506;6.674;2023-01-15T14:02:33;97101.75;;;5.96;75.39
71917;BME280;59793;46.506;6.674;2023-01-15T14:04:59;97089.91;;;5.99;76.60
71917;BME280;59793;46.506;6.674;2023-01-15T14:07:35;97094.38;;;6.07;76.87
71917;BME280;59793;46.506;6.674;2023-01-15T14:29:32;97094.97;;;7.15;74.83
71917;BME280;59793;46.506;6.674;2023-01-15T14:34:42;97073.63;;;9.81;64.42
71917;BME280;59793;46.506;6.674;2023-01-15T14:39:48;97085.69;;;14.16;48.99
71917;BME280;59793;46.506;6.674;2023-01-15T14:47:48;97118.50;;;14.04;48.59
71917;BME280;59793;46.506;6.674;2023-01-15T14:53:16;97094.53;;;13.94;47.16
71917;BME280;59793;46.506;6.674;2023-01-15T15:01:43;97102.16;;;13.38;47.89
71917;BME280;59793;46.506;6.674;2023-01-15T15:04:35;97103.28;;;13.37;48.96
71917;BME280;59793;46.506;6.674;2023-01-15T15:09:58;97109.78;;;14.41;46.40
71917;BME280;59793;46.506;6.674;2023-01-15T15:20:54;97090.94;;;15.46;44.99
71917;BME280;59793;46.506;6.674;2023-01-15T15:24:10;97068.50;;;14.37;45.61
71917;BME280;59793;46.506;6.674;2023-01-15T15:26:28;97093.06;;;12.86;48.51
71917;BME280;59793;46.506;6.674;2023-01-15T15:31:23;97088.78;;;11.39;51.61
71917;BME280;59793;46.506;6.674;2023-01-15T15:33:54;97082.16;;;11.64;52.13
71917;BME280;59793;46.506;6.674;2023-01-15T15:36:21;97084.06;;;11.48;51.04